createdAt,value
2023-05-02T00:01:43.268Z,29.27
2023-05-02T00:04:10.555Z,30.20
2023-05-02T00:06:37.881Z,27.53
2023-05-02T00:09:05.084Z,22.43
2023-05-02T00:11:32.307Z,25.17
2023-05-02T00:13:59.411Z,25.60
2023-05-02T00:16:26.615Z,26.00
2023-05-02T00:18:53.768Z,26.77
2023-05-02T00:21:20.939Z,25.37
2023-05-02T00:23:48.088Z,26.40
2023-05-02T00:26:15.332Z,21.00
2023-05-02T00:28:42.716Z,20.75
2023-05-02T00:31:10.511Z,21.90
2023-05-02T00:33:37.808Z,24.33
2023-05-02T00:36:04.964Z,26.37
2023-05-02T00:38:32.125Z,23.33
2023-05-02T00:40:59.294Z,22.00
2023-05-02T00:43:26.431Z,22.03
2023-05-02T00:45:53.710Z,23.27
2023-05-02T00:48:21.823Z,24.43
2023-05-02T00:50:48.963Z,23.73
2023-05-02T00:53:16.088Z,24.70
2023-05-02T00:55:43.258Z,26.33
2023-05-02T00:58:13.900Z,34.40
2023-05-02T01:00:50.198Z,27.73
2023-05-02T01:03:26.417Z,27.33
2023-05-02T01:06:00.112Z,26.20
2023-05-02T01:08:31.287Z,28.43
2023-05-02T01:11:07.034Z,29.47
2023-05-02T01:13:34.881Z,27.67
2023-05-02T01:16:02.379Z,25.73
2023-05-02T01:18:31.628Z,28.93
2023-05-02T01:20:59.775Z,28.90
2023-05-02T01:23:29.562Z,33.30
2023-05-02T01:25:59.693Z,34.63
2023-05-02T01:28:32.689Z,37.73
2023-05-02T01:30:59.843Z,32.27
2023-05-02T01:33:26.951Z,31.37
2023-05-02T01:35:54.070Z,30.13
2023-05-02T01:38:21.190Z,29.97
2023-05-02T01:40:48.396Z,31.90
2023-05-02T01:43:15.664Z,31.83
2023-05-02T01:45:43.451Z,32.60
2023-05-02T01:48:10.613Z,31.73
2023-05-02T01:50:37.827Z,37.07
2023-05-02T01:53:05.089Z,33.27
2023-05-02T01:55:32.250Z,30.57
2023-05-02T01:57:59.359Z,38.37
2023-05-02T02:00:26.495Z,38.77
2023-05-02T02:02:53.686Z,40.37
2023-05-02T02:05:20.848Z,103.13
2023-05-02T02:07:48.209Z,92.70
2023-05-02T02:10:15.401Z,130.47
2023-05-02T02:12:43.309Z,110.53
2023-05-02T02:15:16.560Z,79.20
2023-05-02T02:17:44.153Z,93.73
2023-05-02T02:20:11.754Z,73.87
2023-05-02T02:22:39.884Z,86.67
2023-05-02T02:25:14.176Z,64.30
2023-05-02T02:27:41.532Z,49.60
2023-05-02T02:30:11.903Z,49.53
2023-05-02T02:32:39.142Z,54.40
2023-05-02T02:35:07.048Z,48.20
2023-05-02T02:37:35.407Z,47.77
2023-05-02T02:40:21.313Z,53.10
2023-05-02T02:42:53.190Z,50.37
2023-05-02T02:45:28.239Z,55.30
2023-05-02T02:48:13.880Z,59.30
2023-05-02T02:50:47.138Z,74.53
2023-05-02T02:53:17.898Z,67.23
2023-05-02T02:55:48.802Z,67.63
2023-05-02T02:58:19.898Z,62.57
2023-05-02T03:00:47.247Z,58.27
2023-05-02T03:03:17.874Z,58.13
2023-05-02T03:05:45.050Z,54.27
2023-05-02T03:08:12.157Z,57.47
2023-05-02T03:10:39.351Z,58.57
2023-05-02T03:13:06.484Z,54.93
2023-05-02T03:15:56.750Z,54.47
2023-05-02T03:18:23.910Z,53.80
2023-05-02T03:20:51.485Z,57.43
2023-05-02T03:23:18.603Z,64.20
2023-05-02T03:25:45.705Z,79.97
2023-05-02T03:28:13.096Z,62.03
2023-05-02T03:30:41.216Z,57.13
2023-05-02T03:33:09.002Z,58.47
2023-05-02T03:35:36.246Z,60.50
2023-05-02T03:38:03.369Z,62.37
2023-05-02T03:40:30.474Z,62.27
2023-05-02T03:42:57.613Z,59.47
2023-05-02T03:45:24.715Z,61.23
2023-05-02T03:47:51.882Z,62.03
2023-05-02T03:50:19.190Z,65.03
2023-05-02T03:52:46.854Z,76.27
2023-05-02T03:55:14.020Z,72.80
2023-05-02T03:57:41.182Z,91.13
2023-05-02T04:00:08.533Z,81.57
2023-05-02T04:02:35.771Z,99.47
2023-05-02T04:05:03.024Z,87.57
2023-05-02T04:07:30.115Z,102.50
2023-05-02T04:09:57.414Z,100.50
2023-05-02T04:12:24.737Z,100.83
2023-05-02T04:14:51.871Z,96.30
2023-05-02T04:17:19.004Z,105.53
2023-05-02T04:19:46.162Z,100.03
2023-05-02T04:22:13.327Z,100.37
2023-05-02T04:24:40.486Z,99.87
2023-05-02T04:27:07.919Z,92.63
2023-05-02T04:29:35.033Z,97.97
2023-05-02T04:32:02.528Z,92.77
2023-05-02T04:34:30.355Z,92.57
2023-05-02T04:36:57.450Z,84.90
2023-05-02T04:39:24.528Z,89.40
2023-05-02T04:41:51.817Z,88.13
2023-05-02T04:44:18.904Z,89.25
2023-05-02T04:46:46.118Z,73.07
2023-05-02T04:49:13.944Z,74.30
2023-05-02T04:51:41.064Z,73.30
2023-05-02T04:54:08.173Z,62.55
2023-05-02T04:56:35.329Z,58.65
2023-05-02T04:59:02.469Z,53.13
2023-05-02T05:01:29.581Z,54.40
2023-05-02T05:03:56.991Z,54.42
2023-05-02T05:06:24.499Z,49.20
2023-05-02T05:08:51.795Z,49.33
2023-05-02T05:11:18.930Z,44.70
2023-05-02T05:13:46.263Z,43.38
2023-05-02T05:16:13.529Z,39.17
2023-05-02T05:18:40.955Z,36.95
2023-05-02T05:21:08.486Z,32.55
2023-05-02T05:23:35.983Z,31.75
2023-05-02T05:26:18.186Z,29.25
2023-05-02T05:28:45.396Z,27.35
2023-05-02T05:31:15.256Z,28.98
2023-05-02T05:33:44.149Z,28.90
2023-05-02T05:36:12.306Z,25.83
2023-05-02T05:38:39.626Z,23.92
2023-05-02T05:41:07.964Z,25.33
2023-05-02T05:43:36.625Z,19.38
2023-05-02T05:46:05.348Z,17.17
2023-05-02T05:48:32.486Z,20.08
2023-05-02T05:50:59.634Z,16.73
2023-05-02T05:53:26.838Z,16.15
2023-05-02T05:55:53.949Z,21.83
2023-05-02T05:58:21.074Z,21.25
2023-05-02T06:00:48.165Z,20.83
2023-05-02T06:03:15.531Z,24.05
2023-05-02T06:05:42.814Z,18.05
2023-05-02T06:08:10.011Z,18.17
2023-05-02T06:10:37.198Z,20.02
2023-05-02T06:13:04.381Z,18.20
2023-05-02T06:15:34.091Z,34.22
2023-05-02T06:18:01.281Z,36.50
2023-05-02T06:20:28.464Z,22.05
2023-05-02T06:22:55.911Z,24.85
2023-05-02T06:25:23.076Z,9.50
2023-05-02T06:27:50.587Z,4.07
2023-05-02T06:30:17.734Z,3.08
2023-05-02T06:32:45.017Z,3.03
2023-05-02T06:35:12.232Z,2.70
2023-05-02T06:37:39.482Z,4.38
2023-05-02T06:40:07.539Z,4.63
2023-05-02T06:42:34.627Z,4.50
2023-05-02T06:45:01.754Z,3.33
2023-05-02T06:47:28.962Z,2.92
2023-05-02T06:49:56.608Z,2.55
2023-05-02T06:52:23.745Z,3.90
2023-05-02T06:54:51.030Z,4.15
2023-05-02T06:57:18.197Z,4.13
2023-05-02T06:59:45.475Z,26.45
2023-05-02T07:02:12.612Z,23.85
2023-05-02T07:04:39.821Z,22.88
2023-05-02T07:07:07.066Z,15.68
2023-05-02T07:09:34.236Z,14.20
2023-05-02T07:12:04.615Z,19.17
2023-05-02T07:14:33.263Z,22.15
2023-05-02T07:17:00.482Z,16.85
2023-05-02T07:19:27.651Z,19.95
2023-05-02T07:21:54.829Z,16.60
2023-05-02T07:24:21.947Z,19.70
2023-05-02T07:26:49.083Z,25.73
2023-05-02T07:29:16.254Z,22.38
2023-05-02T07:31:43.502Z,23.27
2023-05-02T07:34:10.720Z,17.73
2023-05-02T07:36:37.820Z,5.28
2023-05-02T07:39:04.930Z,4.47
2023-05-02T07:41:32.039Z,2.42
2023-05-02T07:43:59.223Z,2.10
2023-05-02T07:46:26.431Z,10.90
2023-05-02T07:48:54.189Z,3.10
2023-05-02T07:51:21.669Z,3.30
2023-05-02T07:53:53.762Z,4.43
2023-05-02T07:56:21.223Z,3.55
2023-05-02T07:58:48.388Z,5.05
2023-05-02T08:01:15.532Z,4.03
2023-05-02T08:03:42.833Z,2.97
2023-05-02T08:06:10.383Z,3.70
2023-05-02T08:08:37.914Z,3.13
2023-05-02T08:11:05.062Z,3.70
2023-05-02T08:13:32.185Z,3.28
2023-05-02T08:15:59.937Z,3.28
2023-05-02T08:18:27.268Z,2.58
2023-05-02T08:20:56.653Z,2.85
2023-05-02T08:23:23.806Z,3.33
2023-05-02T08:25:51.001Z,3.25
2023-05-02T08:28:18.651Z,3.70
2023-05-02T08:30:45.987Z,11.45
2023-05-02T08:33:13.108Z,4.10
2023-05-02T08:35:40.635Z,6.25
2023-05-02T08:38:07.859Z,6.32
2023-05-02T08:40:42.102Z,5.00
2023-05-02T08:43:10.921Z,3.78
2023-05-02T08:45:41.655Z,4.63
2023-05-02T08:48:13.219Z,3.45
2023-05-02T08:50:41.719Z,4.88
2023-05-02T08:53:09.299Z,3.15
2023-05-02T08:55:39.815Z,10.18
2023-05-02T08:58:07.268Z,2.78
2023-05-02T09:00:34.465Z,2.65
2023-05-02T09:03:09.857Z,4.95
2023-05-02T09:05:40.704Z,3.60
2023-05-02T09:08:08.280Z,4.35
2023-05-02T09:10:39.101Z,3.90
2023-05-02T09:13:24.868Z,3.63
2023-05-02T09:16:02.262Z,3.75
2023-05-02T09:18:30.397Z,2.42
2023-05-02T09:20:59.018Z,2.60
2023-05-02T09:23:35.261Z,2.70
2023-05-02T09:26:02.401Z,3.22
2023-05-02T09:28:39.349Z,3.17
2023-05-02T09:31:07.469Z,2.53
2023-05-02T09:33:34.623Z,2.70
2023-05-02T09:36:02.071Z,3.17
2023-05-02T09:38:29.163Z,4.00
2023-05-02T09:40:56.525Z,2.85
2023-05-02T09:43:23.739Z,5.57
2023-05-02T09:46:20.229Z,4.03
2023-05-02T09:48:57.107Z,2.95
2023-05-02T09:51:25.031Z,2.85
2023-05-02T09:53:52.240Z,3.20
2023-05-02T09:56:19.580Z,2.65
2023-05-02T09:58:46.753Z,2.63
2023-05-02T10:01:19.966Z,2.78
2023-05-02T10:03:47.910Z,2.25
2023-05-02T10:06:15.988Z,2.50
2023-05-02T10:08:45.452Z,2.72
2023-05-02T10:11:12.898Z,2.75
2023-05-02T10:13:40.164Z,2.50
2023-05-02T10:16:07.731Z,2.88
2023-05-02T10:18:47.307Z,3.00
2023-05-02T10:21:17.371Z,3.72
2023-05-02T10:23:44.523Z,2.58
2023-05-02T10:26:13.286Z,2.55
2023-05-02T10:28:40.417Z,3.03
2023-05-02T10:31:07.564Z,2.40
2023-05-02T10:33:34.749Z,4.75
2023-05-02T10:36:01.863Z,3.05
2023-05-02T10:38:29.584Z,2.83
2023-05-02T10:40:58.712Z,2.78
2023-05-02T10:43:26.749Z,4.75
2023-05-02T10:45:54.878Z,2.88
2023-05-02T10:48:22.897Z,2.95
2023-05-02T10:50:53.708Z,4.63
2023-05-02T10:53:30.757Z,2.80
2023-05-02T10:56:17.023Z,2.17
2023-05-02T10:58:44.812Z,2.40
2023-05-02T11:01:36.359Z,4.38
2023-05-02T11:04:10.137Z,4.93
2023-05-02T11:06:55.914Z,2.13
2023-05-02T11:09:23.067Z,2.45
2023-05-02T11:11:52.439Z,2.20
2023-05-02T11:14:32.596Z,2.40
2023-05-02T11:16:59.901Z,3.70
2023-05-02T11:19:29.015Z,3.28
2023-05-02T11:22:15.541Z,6.07
2023-05-02T11:24:44.426Z,89.43
2023-05-02T11:27:33.631Z,35.08
2023-05-02T11:30:01.214Z,7.80
2023-05-02T11:32:49.582Z,7.18
2023-05-02T11:35:16.919Z,6.03
2023-05-02T11:37:44.024Z,5.95
2023-05-02T11:40:14.451Z,3.70
2023-05-02T11:42:42.206Z,3.40
2023-05-02T11:45:10.088Z,3.17
2023-05-02T11:47:37.328Z,5.50
2023-05-02T11:50:07.928Z,3.35
2023-05-02T11:52:38.897Z,3.60
2023-05-02T11:55:15.218Z,3.30
2023-05-02T11:57:42.983Z,4.82
2023-05-02T12:00:13.202Z,4.78
2023-05-02T12:02:44.130Z,3.40
2023-05-02T12:05:12.358Z,4.10
2023-05-02T12:07:39.858Z,2.70
2023-05-02T12:10:07.526Z,3.80
2023-05-02T12:12:34.760Z,12.23
2023-05-02T12:15:08.270Z,5.22
2023-05-02T12:17:35.909Z,6.35
2023-05-02T12:20:06.072Z,6.00
2023-05-02T12:22:33.225Z,7.40
2023-05-02T12:25:00.719Z,11.00
2023-05-02T12:27:28.062Z,25.40
2023-05-02T12:29:57.319Z,6.90
2023-05-02T12:32:29.012Z,4.22
2023-05-02T12:34:56.322Z,5.38
2023-05-02T12:37:24.496Z,10.73
2023-05-02T12:39:53.415Z,5.80
2023-05-02T12:42:21.299Z,13.10
2023-05-02T12:44:49.091Z,224.65
2023-05-02T12:47:16.689Z,9.70
2023-05-02T12:49:50.200Z,11.20
2023-05-02T12:52:20.484Z,12.75
2023-05-02T12:54:47.752Z,15.75
2023-05-02T12:57:24.913Z,16.95
2023-05-02T12:59:54.848Z,13.25
2023-05-02T13:02:22.780Z,13.60
2023-05-02T13:04:50.141Z,7.15
2023-05-02T13:07:17.264Z,5.03
2023-05-02T13:09:44.431Z,11.98
2023-05-02T13:12:11.572Z,15.52
2023-05-02T13:14:39.263Z,29.20
2023-05-02T13:17:09.048Z,34.10
2023-05-02T13:19:38.676Z,23.30
2023-05-02T13:22:06.016Z,11.50
2023-05-02T13:24:33.408Z,9.80
2023-05-02T13:27:00.557Z,12.02
2023-05-02T13:29:27.806Z,11.88
2023-05-02T13:31:54.888Z,9.68
2023-05-02T13:34:22.013Z,28.77
2023-05-02T13:36:49.142Z,32.40
2023-05-02T13:39:16.326Z,45.05
2023-05-02T13:41:43.511Z,33.03
2023-05-02T13:44:10.698Z,22.17
2023-05-02T13:46:38.376Z,14.45
2023-05-02T13:49:05.698Z,12.70
2023-05-02T13:51:33.019Z,7.57
2023-05-02T13:54:00.329Z,7.45
2023-05-02T13:56:27.520Z,6.03
2023-05-02T13:58:54.633Z,6.57
2023-05-02T14:01:21.818Z,6.57
2023-05-02T14:03:49.203Z,7.13
2023-05-02T14:06:16.611Z,10.98
2023-05-02T14:08:44.811Z,10.77
2023-05-02T14:11:11.992Z,10.70
2023-05-02T14:13:39.123Z,12.32
2023-05-02T14:16:06.536Z,12.82
2023-05-02T14:18:33.884Z,12.20
2023-05-02T14:21:01.220Z,11.10
2023-05-02T14:23:28.374Z,16.00
2023-05-02T14:25:55.889Z,17.52
2023-05-02T14:28:23.387Z,17.77
2023-05-02T14:30:50.832Z,11.18
2023-05-02T14:33:17.980Z,8.43
2023-05-02T14:35:45.770Z,8.95
2023-05-02T14:38:12.952Z,7.47
2023-05-02T14:40:40.521Z,6.93
2023-05-02T14:43:08.342Z,6.57
2023-05-02T14:45:35.560Z,8.48
2023-05-02T14:48:02.818Z,7.78
2023-05-02T14:50:29.967Z,8.38
2023-05-02T14:52:57.224Z,8.27
2023-05-02T14:55:24.402Z,32.30
2023-05-02T14:57:51.957Z,28.95
2023-05-02T15:00:19.097Z,32.63
2023-05-02T15:02:46.423Z,29.10
2023-05-02T15:05:13.802Z,26.75
2023-05-02T15:07:41.188Z,23.05
2023-05-02T15:10:08.715Z,12.95
2023-05-02T15:12:35.969Z,11.18
2023-05-02T15:15:03.348Z,17.73
2023-05-02T15:17:30.568Z,13.80
2023-05-02T15:19:58.622Z,22.45
2023-05-02T15:22:26.259Z,23.10
2023-05-02T15:24:53.669Z,17.63
2023-05-02T15:27:20.929Z,16.38
2023-05-02T15:29:48.092Z,15.68
2023-05-02T15:32:15.325Z,21.73
2023-05-02T15:34:42.501Z,14.82
2023-05-02T15:37:11.258Z,13.50
2023-05-02T15:39:38.496Z,9.55
2023-05-02T15:42:05.834Z,8.57
2023-05-02T15:44:37.154Z,9.52
2023-05-02T15:47:04.603Z,8.23
2023-05-02T15:49:33.273Z,9.73
2023-05-02T15:52:01.098Z,9.70
2023-05-02T15:54:28.348Z,10.13
2023-05-02T15:56:55.827Z,14.27
2023-05-02T15:59:22.970Z,14.13
2023-05-02T16:01:50.172Z,15.77
2023-05-02T16:04:17.555Z,18.20
2023-05-02T16:06:44.862Z,16.15
2023-05-02T16:09:12.910Z,16.85
2023-05-02T16:11:40.097Z,27.40
2023-05-02T16:14:07.286Z,23.85
2023-05-02T16:16:34.521Z,16.15
2023-05-02T16:19:01.700Z,14.55
2023-05-02T16:21:28.889Z,22.65
2023-05-02T16:23:56.169Z,52.90
2023-05-02T16:26:23.272Z,80.20
2023-05-02T16:28:50.405Z,6.90
2023-05-02T16:31:17.593Z,14.05
2023-05-02T16:33:44.829Z,36.28
2023-05-02T16:36:11.976Z,211.18
2023-05-02T16:38:39.194Z,158.32
2023-05-02T16:41:07.229Z,46.35
2023-05-02T16:43:34.844Z,21.33
2023-05-02T16:46:02.028Z,16.15
2023-05-02T16:48:29.219Z,29.85
2023-05-02T16:50:57.175Z,44.75
2023-05-02T16:53:24.557Z,19.13
2023-05-02T16:55:51.699Z,27.48
2023-05-02T16:58:19.176Z,55.50
2023-05-02T17:00:46.603Z,39.92
2023-05-02T17:03:13.852Z,63.35
2023-05-02T17:05:41.467Z,40.90
2023-05-02T17:08:09.270Z,42.45
2023-05-02T17:10:37.569Z,34.00
2023-05-02T17:13:04.664Z,29.35
2023-05-02T17:15:31.891Z,26.90
2023-05-02T17:17:59.032Z,22.33
2023-05-02T17:20:26.272Z,15.65
2023-05-02T17:22:54.428Z,24.23
2023-05-02T17:25:21.584Z,16.70
2023-05-02T17:27:48.698Z,17.38
2023-05-02T17:30:16.050Z,12.93
2023-05-02T17:32:43.255Z,23.45
2023-05-02T17:35:10.516Z,8.73
2023-05-02T17:37:39.875Z,11.45
2023-05-02T17:40:07.333Z,29.35
2023-05-02T17:42:34.460Z,33.58
2023-05-02T17:45:01.725Z,15.45
2023-05-02T17:47:28.852Z,17.00
2023-05-02T17:49:56.008Z,21.40
2023-05-02T17:52:23.204Z,46.30
2023-05-02T17:54:50.296Z,65.43
2023-05-02T17:57:17.642Z,41.03
2023-05-02T17:59:44.792Z,22.88
2023-05-02T18:02:11.963Z,18.65
2023-05-02T18:04:39.178Z,8.05
2023-05-02T18:07:06.536Z,17.27
2023-05-02T18:09:33.654Z,26.88
2023-05-02T18:12:04.278Z,21.65
2023-05-02T18:14:31.580Z,52.53
2023-05-02T18:16:58.847Z,33.08
2023-05-02T18:19:25.960Z,34.72
2023-05-02T18:21:53.516Z,27.38
2023-05-02T18:24:20.720Z,26.15
2023-05-02T18:26:49.321Z,24.17
2023-05-02T18:29:16.445Z,20.52
2023-05-02T18:31:43.616Z,18.55
2023-05-02T18:34:11.217Z,24.25
2023-05-02T18:36:39.170Z,24.65
2023-05-02T18:39:06.294Z,28.77
2023-05-02T18:41:33.385Z,26.10
2023-05-02T18:44:00.865Z,32.38
2023-05-02T18:46:28.139Z,32.70
2023-05-02T18:48:55.595Z,31.10
2023-05-02T18:51:23.803Z,38.72
2023-05-02T18:53:51.506Z,49.10
2023-05-02T18:56:18.690Z,42.05
2023-05-02T18:58:46.559Z,61.15
2023-05-02T19:01:14.885Z,66.20
2023-05-02T19:03:43.531Z,58.67
2023-05-02T19:06:11.165Z,69.93
2023-05-02T19:08:42.473Z,42.40
2023-05-02T19:11:09.741Z,33.13
2023-05-02T19:13:36.947Z,28.42
2023-05-02T19:16:05.584Z,28.00
2023-05-02T19:18:33.151Z,37.47
2023-05-02T19:21:00.831Z,35.25
2023-05-02T19:23:28.101Z,45.65
2023-05-02T19:25:55.243Z,49.70
2023-05-02T19:28:22.939Z,58.72
2023-05-02T19:30:50.100Z,74.95
2023-05-02T19:33:17.475Z,88.38
2023-05-02T19:35:44.610Z,85.45
2023-05-02T19:38:12.461Z,74.13
2023-05-02T19:40:39.623Z,79.70
2023-05-02T19:43:06.756Z,58.53
2023-05-02T19:45:34.109Z,57.78
2023-05-02T19:48:01.311Z,53.47
2023-05-02T19:50:28.970Z,52.13
2023-05-02T19:52:56.716Z,61.25
2023-05-02T19:55:23.920Z,91.72
2023-05-02T19:57:51.073Z,147.43
2023-05-02T20:00:18.290Z,100.88
2023-05-02T20:02:45.867Z,110.07
2023-05-02T20:05:13.066Z,87.45
2023-05-02T20:07:40.232Z,84.25
2023-05-02T20:10:07.756Z,77.78
2023-05-02T20:12:34.897Z,72.13
2023-05-02T20:15:02.355Z,70.95
2023-05-02T20:17:29.511Z,74.15
2023-05-02T20:19:57.453Z,80.95
2023-05-02T20:22:24.553Z,70.50
2023-05-02T20:24:51.687Z,70.93
2023-05-02T20:27:18.851Z,73.57
2023-05-02T20:29:45.970Z,98.28
2023-05-02T20:32:13.257Z,92.70
2023-05-02T20:34:40.702Z,82.88
2023-05-02T20:37:07.879Z,94.40
2023-05-02T20:39:35.200Z,108.72
2023-05-02T20:42:04.135Z,125.10
2023-05-02T20:44:36.489Z,114.53
2023-05-02T20:47:03.902Z,106.53
2023-05-02T20:49:32.352Z,115.75
2023-05-02T20:51:59.792Z,92.20
2023-05-02T20:54:26.896Z,89.03
2023-05-02T20:56:54.028Z,76.45
2023-05-02T20:59:21.145Z,91.90
2023-05-02T21:01:48.318Z,77.82
2023-05-02T21:04:15.561Z,74.63
2023-05-02T21:06:42.789Z,77.57
2023-05-02T21:09:09.966Z,70.18
2023-05-02T21:11:37.116Z,72.10
2023-05-02T21:14:04.347Z,54.58
2023-05-02T21:16:31.584Z,40.30
2023-05-02T21:18:58.774Z,33.15
2023-05-02T21:21:25.901Z,31.13
2023-05-02T21:23:53.008Z,36.13
2023-05-02T21:26:20.141Z,32.67
2023-05-02T21:28:47.290Z,35.75
2023-05-02T21:31:14.469Z,44.05
2023-05-02T21:33:41.641Z,59.20
2023-05-02T21:36:08.894Z,36.70
2023-05-02T21:38:35.994Z,37.17
2023-05-02T21:41:03.504Z,39.38
2023-05-02T21:43:31.807Z,44.47
2023-05-02T21:45:58.934Z,80.85
2023-05-02T21:48:26.122Z,79.47
2023-05-02T21:50:53.287Z,66.68
2023-05-02T21:53:20.742Z,62.75
2023-05-02T21:55:47.958Z,66.85
2023-05-02T21:58:15.100Z,65.50
2023-05-02T22:00:43.352Z,74.50
2023-05-02T22:03:11.936Z,63.53
2023-05-02T22:05:39.907Z,63.05
2023-05-02T22:08:07.835Z,64.65
2023-05-02T22:10:41.733Z,72.68
2023-05-02T22:13:10.262Z,61.83
2023-05-02T22:15:37.659Z,57.13
2023-05-02T22:18:06.797Z,66.05
2023-05-02T22:20:34.121Z,60.75
2023-05-02T22:23:01.319Z,74.20
2023-05-02T22:25:28.981Z,72.70
2023-05-02T22:27:56.090Z,57.00
2023-05-02T22:30:23.394Z,60.85
2023-05-02T22:32:50.648Z,59.45
2023-05-02T22:35:18.075Z,60.60
2023-05-02T22:37:45.275Z,55.05
2023-05-02T22:40:12.890Z,55.55
2023-05-02T22:42:40.091Z,52.63
2023-05-02T22:45:10.706Z,46.30
2023-05-02T22:47:37.932Z,49.28
2023-05-02T22:50:05.681Z,41.85
2023-05-02T22:52:37.849Z,48.20
2023-05-02T22:55:09.370Z,43.58
2023-05-02T22:57:37.267Z,43.45
2023-05-02T23:00:09.224Z,39.33
2023-05-02T23:02:36.697Z,36.88
2023-05-02T23:05:07.049Z,38.03
2023-05-02T23:07:34.393Z,40.83
2023-05-02T23:10:01.846Z,34.10
2023-05-02T23:12:29.158Z,31.38
2023-05-02T23:14:56.909Z,31.00
2023-05-02T23:17:24.084Z,37.25
2023-05-02T23:19:51.272Z,47.63
2023-05-02T23:22:18.378Z,50.15
2023-05-02T23:24:48.342Z,54.85
2023-05-02T23:27:15.745Z,38.90
2023-05-02T23:29:42.928Z,31.52
2023-05-02T23:32:10.160Z,32.95
2023-05-02T23:34:37.384Z,32.22
2023-05-02T23:37:05.993Z,31.67
2023-05-02T23:39:33.438Z,27.73
2023-05-02T23:42:03.812Z,27.27
2023-05-02T23:44:33.734Z,26.27
2023-05-02T23:47:00.930Z,30.05
2023-05-02T23:49:28.254Z,31.25
2023-05-02T23:51:55.475Z,29.58
2023-05-02T23:54:22.740Z,16.73
2023-05-02T23:56:49.924Z,17.60
2023-05-02T23:59:17.077Z,21.80
